createdAt,value
2023-03-05T00:02:30.279Z,65.88
2023-03-05T00:05:34.879Z,65.93
2023-03-05T00:08:37.737Z,66.09
2023-03-05T00:11:40.378Z,65.89
2023-03-05T00:14:43.006Z,66.01
2023-03-05T00:17:45.679Z,66.21
2023-03-05T00:20:48.339Z,66.19
2023-03-05T00:23:52.030Z,66.43
2023-03-05T00:26:55.971Z,66.50
2023-03-05T00:29:58.818Z,66.61
2023-03-05T00:33:02.086Z,66.18
2023-03-05T00:36:06.283Z,66.32
2023-03-05T00:39:09.791Z,66.04
2023-03-05T00:42:12.504Z,65.99
2023-03-05T00:45:15.171Z,66.12
2023-03-05T00:48:17.925Z,66.43
2023-03-05T00:51:20.646Z,66.09
2023-03-05T00:54:23.515Z,66.22
2023-03-05T00:57:27.371Z,66.11
2023-03-05T01:00:30.051Z,66.06
2023-03-05T01:03:34.529Z,66.07
2023-03-05T01:06:39.291Z,66.12
2023-03-05T01:09:41.915Z,66.02
2023-03-05T01:12:44.528Z,65.61
2023-03-05T01:15:48.775Z,65.70
2023-03-05T01:18:52.221Z,65.97
2023-03-05T01:21:55.224Z,65.69
2023-03-05T01:24:58.032Z,65.52
2023-03-05T01:28:01.308Z,65.53
2023-03-05T01:31:06.838Z,65.71
2023-03-05T01:34:09.812Z,65.39
2023-03-05T01:37:12.656Z,65.27
2023-03-05T01:40:16.996Z,65.50
2023-03-05T01:43:23.406Z,65.48
2023-03-05T01:46:27.917Z,65.52
2023-03-05T01:49:38.748Z,65.62
2023-03-05T01:52:43.623Z,65.97
2023-03-05T01:55:46.423Z,65.73
2023-03-05T01:58:50.068Z,65.66
2023-03-05T02:01:54.908Z,65.85
2023-03-05T02:05:01.556Z,65.81
2023-03-05T02:08:07.507Z,65.51
2023-03-05T02:11:10.381Z,65.34
2023-03-05T02:14:13.116Z,65.46
2023-03-05T02:17:16.237Z,65.48
2023-03-05T02:20:20.464Z,65.35
2023-03-05T02:23:24.898Z,65.25
2023-03-05T02:26:27.629Z,65.56
2023-03-05T02:29:30.526Z,65.36
2023-03-05T02:32:33.231Z,65.22
2023-03-05T02:35:36.685Z,65.12
2023-03-05T02:38:40.437Z,65.19
2023-03-05T02:41:43.462Z,65.27
2023-03-05T02:44:47.078Z,65.03
2023-03-05T02:47:49.883Z,64.99
2023-03-05T02:50:53.353Z,64.94
2023-03-05T02:53:56.033Z,65.12
2023-03-05T02:57:01.652Z,65.08
2023-03-05T03:00:05.382Z,65.11
2023-03-05T03:03:08.187Z,64.91
2023-03-05T03:06:10.863Z,65.22
2023-03-05T03:09:13.511Z,64.88
2023-03-05T03:12:16.109Z,65.16
2023-03-05T03:15:19.226Z,65.47
2023-03-05T03:18:22.091Z,65.72
2023-03-05T03:21:25.757Z,65.49
2023-03-05T03:24:30.119Z,65.66
2023-03-05T03:27:32.828Z,65.55
2023-03-05T03:30:35.610Z,65.49
2023-03-05T03:33:38.230Z,65.57
2023-03-05T03:36:41.167Z,65.49
2023-03-05T03:39:43.903Z,65.05
2023-03-05T03:42:46.771Z,65.45
2023-03-05T03:45:49.673Z,65.32
2023-03-05T03:48:54.617Z,65.05
2023-03-05T03:51:58.380Z,65.24
2023-03-05T03:55:02.129Z,65.07
2023-03-05T03:58:04.820Z,65.34
2023-03-05T04:01:07.425Z,65.27
2023-03-05T04:04:10.564Z,65.18
2023-03-05T04:07:13.312Z,65.44
2023-03-05T04:10:15.984Z,65.90
2023-03-05T04:13:18.766Z,65.83
2023-03-05T04:16:21.570Z,65.74
2023-03-05T04:19:24.476Z,66.27
2023-03-05T04:22:27.362Z,66.17
2023-03-05T04:25:30.345Z,66.24
2023-03-05T04:28:33.473Z,66.30
2023-03-05T04:31:36.091Z,66.19
2023-03-05T04:34:39.013Z,66.19
2023-03-05T04:37:41.661Z,66.57
2023-03-05T04:40:45.175Z,66.50
2023-03-05T04:43:47.779Z,66.67
2023-03-05T04:46:50.442Z,66.80
2023-03-05T04:49:53.180Z,66.79
2023-03-05T04:52:55.960Z,67.01
2023-03-05T04:56:01.653Z,67.01
2023-03-05T04:59:05.883Z,67.01
2023-03-05T05:02:08.509Z,67.20
2023-03-05T05:05:22.219Z,67.31
2023-03-05T05:08:25.108Z,67.24
2023-03-05T05:11:27.757Z,67.11
2023-03-05T05:14:30.538Z,67.35
2023-03-05T05:17:34.181Z,67.30
2023-03-05T05:20:36.814Z,67.44
2023-03-05T05:23:42.408Z,67.57
2023-03-05T05:26:45.083Z,67.75
2023-03-05T05:29:50.412Z,67.84
2023-03-05T05:32:53.019Z,68.02
2023-03-05T05:35:55.695Z,68.08
2023-03-05T05:38:58.317Z,68.17
2023-03-05T05:42:01.020Z,68.28
2023-03-05T05:45:03.862Z,68.42
2023-03-05T05:48:06.860Z,68.41
2023-03-05T05:51:13.298Z,68.83
2023-03-05T05:54:15.951Z,68.69
2023-03-05T05:57:18.653Z,68.77
2023-03-05T06:00:21.552Z,68.76
2023-03-05T06:03:24.332Z,68.31
2023-03-05T06:06:27.610Z,68.17
2023-03-05T06:09:30.303Z,68.22
2023-03-05T06:12:32.925Z,68.26
2023-03-05T06:15:35.560Z,68.68
2023-03-05T06:18:38.452Z,68.74
2023-03-05T06:21:41.594Z,68.91
2023-03-05T06:24:44.198Z,68.76
2023-03-05T06:27:46.931Z,68.87
2023-03-05T06:30:50.235Z,69.07
2023-03-05T06:33:54.433Z,69.30
2023-03-05T06:36:57.101Z,69.27
2023-03-05T06:39:59.711Z,69.09
2023-03-05T06:43:02.359Z,69.12
2023-03-05T06:46:11.144Z,69.29
2023-03-05T06:49:13.880Z,69.64
2023-03-05T06:52:16.612Z,69.50
2023-03-05T06:55:19.359Z,69.65
2023-03-05T06:58:22.039Z,69.64
2023-03-05T07:01:24.731Z,69.97
2023-03-05T07:04:27.488Z,69.86
2023-03-05T07:07:30.483Z,70.21
2023-03-05T07:10:37.345Z,70.04
2023-03-05T07:13:40.351Z,70.16
2023-03-05T07:16:43.090Z,70.17
2023-03-05T07:19:45.788Z,70.14
2023-03-05T07:22:48.450Z,70.11
2023-03-05T07:25:51.146Z,70.26
2023-03-05T07:28:54.643Z,70.33
2023-03-05T07:31:57.260Z,70.37
2023-03-05T07:35:00.725Z,70.35
2023-03-05T07:38:03.358Z,70.35
2023-03-05T07:41:07.156Z,70.42
2023-03-05T07:44:09.838Z,70.33
2023-03-05T07:47:12.521Z,70.04
2023-03-05T07:50:15.196Z,70.06
2023-03-05T07:53:17.894Z,70.05
2023-03-05T07:56:21.828Z,69.92
2023-03-05T07:59:24.537Z,70.18
2023-03-05T08:02:27.299Z,69.81
2023-03-05T08:05:30.309Z,69.79
2023-03-05T08:08:33.087Z,69.95
2023-03-05T08:11:35.705Z,69.86
2023-03-05T08:14:38.316Z,69.78
2023-03-05T08:17:41.108Z,69.73
2023-03-05T08:20:43.883Z,69.92
2023-03-05T08:23:46.857Z,69.95
2023-03-05T08:26:49.519Z,70.16
2023-03-05T08:29:52.122Z,70.10
2023-03-05T08:32:55.463Z,70.20
2023-03-05T08:35:58.171Z,70.48
2023-03-05T08:39:01.052Z,70.49
2023-03-05T08:42:04.080Z,70.85
2023-03-05T08:45:07.213Z,70.84
2023-03-05T08:48:09.819Z,70.92
2023-03-05T08:51:19.510Z,70.98
2023-03-05T08:54:22.130Z,71.04
2023-03-05T08:57:24.924Z,71.05
2023-03-05T09:00:27.576Z,71.06
2023-03-05T09:03:30.495Z,71.25
2023-03-05T09:06:34.528Z,71.29
2023-03-05T09:09:37.230Z,71.52
2023-03-05T09:12:40.335Z,71.87
2023-03-05T09:15:43.081Z,72.17
2023-03-05T09:18:46.214Z,72.67
2023-03-05T09:21:48.904Z,72.91
2023-03-05T09:24:51.511Z,73.25
2023-03-05T09:27:54.504Z,73.34
2023-03-05T09:30:57.209Z,73.60
2023-03-05T09:33:59.874Z,73.77
2023-03-05T09:37:03.044Z,73.95
2023-03-05T09:40:06.065Z,74.16
2023-03-05T09:43:25.998Z,74.53
2023-03-05T09:46:36.546Z,74.55
2023-03-05T09:49:57.627Z,74.69
2023-03-05T09:53:03.049Z,74.64
2023-03-05T09:56:17.016Z,74.65
2023-03-05T09:59:19.722Z,74.84
2023-03-05T10:02:28.333Z,74.83
2023-03-05T10:05:43.549Z,74.84
2023-03-05T10:09:03.142Z,74.72
2023-03-05T10:12:08.035Z,74.80
2023-03-05T10:15:21.185Z,74.76
2023-03-05T10:18:40.263Z,74.77
2023-03-05T10:21:51.782Z,74.72
2023-03-05T10:25:13.033Z,74.71
2023-03-05T10:28:19.729Z,74.71
2023-03-05T10:31:37.210Z,74.83
2023-03-05T10:34:55.153Z,74.80
2023-03-05T10:37:57.932Z,74.63
2023-03-05T10:41:07.787Z,74.93
2023-03-05T10:44:20.017Z,74.53
2023-03-05T10:47:25.569Z,74.67
2023-03-05T10:50:31.803Z,74.86
2023-03-05T10:53:56.151Z,74.75
2023-03-05T10:57:14.329Z,74.68
2023-03-05T11:00:28.038Z,75.00
2023-03-05T11:03:47.903Z,75.10
2023-03-05T11:06:50.819Z,75.16
2023-03-05T11:10:26.204Z,75.30
2023-03-05T11:13:29.477Z,75.08
2023-03-05T11:16:47.245Z,75.08
2023-03-05T11:19:50.087Z,74.92
2023-03-05T11:23:13.030Z,75.01
2023-03-05T11:26:21.952Z,75.16
2023-03-05T11:29:32.283Z,75.21
2023-03-05T11:32:35.453Z,75.18
2023-03-05T11:35:40.292Z,74.78
2023-03-05T11:38:50.413Z,75.16
2023-03-05T11:42:05.480Z,75.06
2023-03-05T11:45:15.381Z,75.43
2023-03-05T11:48:25.916Z,75.37
2023-03-05T11:51:47.293Z,75.24
2023-03-05T11:55:02.081Z,74.96
2023-03-05T11:58:20.773Z,75.00
2023-03-05T12:01:24.741Z,75.43
2023-03-05T12:04:27.643Z,75.43
2023-03-05T12:07:36.256Z,75.19
2023-03-05T12:10:38.929Z,75.29
2023-03-05T12:13:45.390Z,75.08
2023-03-05T12:17:00.636Z,74.49
2023-03-05T12:20:24.054Z,74.81
2023-03-05T12:23:29.854Z,74.64
2023-03-05T12:26:51.124Z,74.59
2023-03-05T12:29:54.442Z,74.71
2023-03-05T12:32:57.067Z,74.47
2023-03-05T12:36:18.493Z,74.55
2023-03-05T12:39:40.420Z,74.52
2023-03-05T12:42:50.017Z,74.13
2023-03-05T12:46:12.889Z,74.11
2023-03-05T12:49:27.171Z,74.04
2023-03-05T12:52:32.161Z,73.92
2023-03-05T12:55:55.678Z,73.87
2023-03-05T12:59:00.520Z,73.98
2023-03-05T13:02:05.427Z,74.01
2023-03-05T13:05:28.674Z,74.12
2023-03-05T13:08:38.166Z,74.34
2023-03-05T13:11:42.394Z,74.32
2023-03-05T13:14:46.320Z,74.45
2023-03-05T13:18:08.562Z,74.33
2023-03-05T13:21:15.460Z,74.09
2023-03-05T13:24:19.397Z,74.17
2023-03-05T13:27:29.804Z,74.20
2023-03-05T13:30:34.368Z,74.20
2023-03-05T13:33:37.812Z,74.43
2023-03-05T13:36:44.665Z,74.27
2023-03-05T13:39:48.709Z,74.30
2023-03-05T13:42:53.398Z,74.35
2023-03-05T13:45:57.293Z,74.07
2023-03-05T13:49:19.084Z,74.28
2023-03-05T13:52:25.670Z,74.24
2023-03-05T13:55:28.379Z,74.20
2023-03-05T13:58:52.703Z,74.18
2023-03-05T14:01:56.716Z,74.43
2023-03-05T14:05:09.714Z,74.61
2023-03-05T14:12:37.934Z,74.97
2023-03-05T14:15:40.640Z,74.83
2023-03-05T14:18:54.835Z,74.98
2023-03-05T14:21:57.752Z,75.00
2023-03-05T14:25:00.470Z,75.17
2023-03-05T14:28:05.604Z,74.82
2023-03-05T14:31:15.780Z,74.79
2023-03-05T14:34:27.428Z,74.23
2023-03-05T14:37:34.403Z,74.16
2023-03-05T14:40:37.950Z,74.12
2023-03-05T14:43:40.622Z,74.12
2023-03-05T14:46:44.380Z,73.83
2023-03-05T14:49:47.152Z,74.10
2023-03-05T14:52:51.400Z,74.13
2023-03-05T14:55:58.343Z,74.15
2023-03-05T14:59:01.018Z,74.13
2023-03-05T15:02:03.651Z,74.48
2023-03-05T15:08:18.796Z,74.53
2023-03-05T15:11:22.854Z,74.36
2023-03-05T15:14:25.504Z,74.42
2023-03-05T15:17:34.328Z,74.35
2023-03-05T15:20:39.263Z,73.94
2023-03-05T15:23:44.477Z,73.66
2023-03-05T15:26:49.912Z,73.33
2023-03-05T15:29:53.796Z,73.75
2023-03-05T15:32:57.943Z,74.28
2023-03-05T15:36:00.920Z,74.11
2023-03-05T15:39:03.894Z,73.87
2023-03-05T15:42:06.971Z,73.68
2023-03-05T15:45:10.138Z,73.64
2023-03-05T15:48:12.934Z,73.66
2023-03-05T15:51:16.622Z,73.63
2023-03-05T15:54:21.665Z,73.53
2023-03-05T15:57:24.553Z,73.61
2023-03-05T16:00:29.764Z,73.63
2023-03-05T16:03:32.475Z,73.56
2023-03-05T16:06:35.313Z,73.63
2023-03-05T16:09:41.382Z,73.84
2023-03-05T16:12:44.868Z,73.86
2023-03-05T16:15:52.959Z,73.66
2023-03-05T16:18:57.655Z,73.56
2023-03-05T16:22:00.314Z,73.36
2023-03-05T16:25:03.258Z,73.39
2023-03-05T16:28:06.304Z,73.37
2023-03-05T16:31:19.242Z,73.59
2023-03-05T16:34:23.111Z,73.42
2023-03-05T16:37:26.289Z,73.38
2023-03-05T16:40:44.445Z,73.49
2023-03-05T16:43:59.141Z,73.38
2023-03-05T16:47:01.870Z,73.19
2023-03-05T16:50:05.369Z,73.25
2023-03-05T16:53:08.334Z,73.22
2023-03-05T16:56:11.068Z,73.31
2023-03-05T16:59:14.148Z,73.05
2023-03-05T17:02:17.275Z,73.09
2023-03-05T17:05:20.553Z,73.01
2023-03-05T17:08:24.563Z,72.77
2023-03-05T17:11:27.543Z,72.53
2023-03-05T17:14:30.187Z,72.31
2023-03-05T17:17:32.990Z,72.44
2023-03-05T17:20:36.602Z,72.26
2023-03-05T17:23:39.779Z,72.08
2023-03-05T17:26:42.535Z,71.91
2023-03-05T17:29:45.657Z,71.81
2023-03-05T17:32:51.752Z,72.22
2023-03-05T17:35:54.808Z,71.78
2023-03-05T17:38:57.819Z,71.81
2023-03-05T17:42:00.691Z,71.93
2023-03-05T17:45:04.571Z,72.13
2023-03-05T17:48:09.760Z,72.26
2023-03-05T17:51:13.851Z,72.47
2023-03-05T17:54:16.638Z,72.43
2023-03-05T17:57:20.233Z,72.61
2023-03-05T18:00:27.518Z,72.75
2023-03-05T18:03:30.498Z,72.52
2023-03-05T18:06:33.575Z,72.51
2023-03-05T18:09:36.347Z,72.73
2023-03-05T18:12:39.400Z,72.82
2023-03-05T18:15:47.542Z,72.58
2023-03-05T18:18:51.276Z,72.92
2023-03-05T18:21:54.250Z,72.81
2023-03-05T18:24:58.144Z,72.77
2023-03-05T18:28:02.513Z,72.81
2023-03-05T18:31:06.217Z,72.89
2023-03-05T18:34:09.478Z,73.10
2023-03-05T18:37:12.391Z,73.21
2023-03-05T18:40:19.568Z,73.62
2023-03-05T18:43:23.020Z,73.87
2023-03-05T18:46:25.831Z,73.87
2023-03-05T18:49:29.788Z,74.17
2023-03-05T18:52:32.613Z,74.33
2023-03-05T18:55:35.487Z,74.42
2023-03-05T18:58:39.689Z,74.64
2023-03-05T19:01:44.546Z,74.76
2023-03-05T19:04:47.393Z,75.07
2023-03-05T19:07:52.467Z,75.16
2023-03-05T19:10:55.303Z,75.23
2023-03-05T19:13:58.534Z,75.41
2023-03-05T19:17:01.264Z,75.25
2023-03-05T19:20:06.457Z,75.15
2023-03-05T19:23:09.288Z,75.23
2023-03-05T19:26:12.520Z,75.05
2023-03-05T19:29:15.751Z,74.79
2023-03-05T19:32:18.541Z,74.76
2023-03-05T19:35:21.639Z,74.81
2023-03-05T19:38:25.042Z,74.51
2023-03-05T19:41:29.509Z,74.57
2023-03-05T19:44:32.475Z,74.61
2023-03-05T19:47:35.203Z,74.18
2023-03-05T19:50:37.845Z,74.12
2023-03-05T19:53:41.073Z,73.96
2023-03-05T19:56:44.521Z,74.47
2023-03-05T19:59:47.284Z,75.39
2023-03-05T20:02:49.984Z,75.04
2023-03-05T20:05:52.828Z,75.30
2023-03-05T20:08:56.431Z,75.28
2023-03-05T20:12:02.988Z,75.91
2023-03-05T20:15:06.711Z,76.12
2023-03-05T20:18:10.111Z,76.18
2023-03-05T20:21:21.167Z,76.19
2023-03-05T20:24:24.119Z,76.11
2023-03-05T20:27:26.805Z,76.03
2023-03-05T20:30:29.765Z,76.22
2023-03-05T20:33:34.476Z,76.52
2023-03-05T20:36:37.684Z,76.99
2023-03-05T20:39:40.549Z,77.34
2023-03-05T20:42:43.401Z,77.79
2023-03-05T20:45:46.311Z,77.81
2023-03-05T20:48:50.539Z,78.14
2023-03-05T20:51:53.394Z,77.89
2023-03-05T20:54:56.176Z,77.79
2023-03-05T20:57:59.181Z,77.26
2023-03-05T21:01:01.957Z,77.51
2023-03-05T21:04:04.730Z,77.53
2023-03-05T21:07:07.509Z,77.40
2023-03-05T21:10:11.108Z,77.28
2023-03-05T21:13:13.958Z,77.58
2023-03-05T21:16:22.426Z,77.37
2023-03-05T21:19:25.335Z,77.22
2023-03-05T21:22:27.962Z,77.54
2023-03-05T21:25:31.342Z,77.38
2023-03-05T21:28:34.580Z,77.67
2023-03-05T21:31:37.723Z,77.58
2023-03-05T21:34:42.731Z,77.71
2023-03-05T21:37:45.449Z,77.63
2023-03-05T21:40:50.068Z,77.68
2023-03-05T21:43:52.761Z,77.70
2023-03-05T21:46:55.538Z,77.86
2023-03-05T21:49:58.372Z,77.49
2023-03-05T21:53:02.103Z,77.52
2023-03-05T21:56:31.484Z,77.17
2023-03-05T21:59:34.644Z,77.13
2023-03-05T22:02:37.649Z,76.99
2023-03-05T22:05:42.656Z,76.93
2023-03-05T22:08:45.861Z,76.94
2023-03-05T22:11:51.072Z,76.79
2023-03-05T22:14:53.794Z,76.89
2023-03-05T22:17:56.454Z,76.79
2023-03-05T22:20:59.624Z,76.38
2023-03-05T22:24:02.281Z,76.24
2023-03-05T22:27:04.937Z,76.48
2023-03-05T22:30:08.758Z,76.20
2023-03-05T22:33:12.373Z,75.97
2023-03-05T22:36:15.541Z,75.84
2023-03-05T22:39:18.311Z,75.80
2023-03-05T22:42:21.092Z,75.94
2023-03-05T22:45:26.244Z,76.05
2023-03-05T22:48:28.896Z,75.84
2023-03-05T22:51:31.671Z,75.95
2023-03-05T22:54:34.317Z,75.83
2023-03-05T22:57:36.968Z,75.99
2023-03-05T23:00:40.497Z,76.34
2023-03-05T23:03:58.818Z,76.15
2023-03-05T23:07:10.622Z,76.47
2023-03-05T23:10:18.118Z,76.46
2023-03-05T23:13:20.833Z,76.52
2023-03-05T23:16:23.547Z,76.78
2023-03-05T23:19:26.344Z,76.75
2023-03-05T23:22:29.118Z,76.79
2023-03-05T23:25:33.653Z,76.68
2023-03-05T23:28:36.304Z,76.26
2023-03-05T23:31:38.957Z,76.09
2023-03-05T23:34:41.661Z,76.01
2023-03-05T23:37:44.415Z,75.84
2023-03-05T23:40:48.488Z,75.86
2023-03-05T23:43:51.141Z,75.71
2023-03-05T23:46:53.740Z,75.57
2023-03-05T23:49:56.452Z,75.65
2023-03-05T23:53:01.821Z,75.55
2023-03-05T23:56:10.098Z,75.62
2023-03-05T23:59:12.960Z,75.28
